createdAt,value
2018-11-13T00:03:38.528Z,15.07
2018-11-13T00:09:33.538Z,15.9
2018-11-13T00:15:28.561Z,14.99
2018-11-13T00:21:23.559Z,18.32
2018-11-13T00:27:18.618Z,18.07
2018-11-13T00:33:13.520Z,15.03
2018-11-13T00:39:08.573Z,15.73
2018-11-13T00:45:03.536Z,17.66
2018-11-13T00:50:59.194Z,17.75
2018-11-13T00:56:53.580Z,16.55
2018-11-13T01:02:48.602Z,15.47
2018-11-13T01:08:43.567Z,14.2
2018-11-13T01:14:38.563Z,17.67
2018-11-13T01:20:33.622Z,19.79
2018-11-13T01:26:28.662Z,19.12
2018-11-13T01:32:23.592Z,18.96
2018-11-13T01:38:18.600Z,18.37
2018-11-13T01:44:13.594Z,21.93
2018-11-13T01:50:08.591Z,22.04
2018-11-13T01:56:03.611Z,20.57
2018-11-13T02:01:58.597Z,25.23
2018-11-13T02:07:53.603Z,27.96
2018-11-13T02:13:48.595Z,25.99
2018-11-13T02:19:43.595Z,23.09
2018-11-13T02:25:38.644Z,25.76
2018-11-13T02:31:33.596Z,25.53
2018-11-13T02:37:28.603Z,27.83
2018-11-13T02:43:23.609Z,29.77
2018-11-13T02:49:18.624Z,31.93
2018-11-13T02:55:13.642Z,32.08
2018-11-13T03:01:08.630Z,29.95
2018-11-13T03:07:03.644Z,29.93
2018-11-13T03:12:58.683Z,29.35
2018-11-13T03:18:53.707Z,27.57
2018-11-13T03:24:48.647Z,27.64
2018-11-13T03:30:43.694Z,26.46
2018-11-13T03:36:38.627Z,25.55
2018-11-13T03:42:33.720Z,26.73
2018-11-13T03:48:28.660Z,23.05
2018-11-13T03:54:23.660Z,23.22
2018-11-13T04:00:18.650Z,22.05
2018-11-13T04:06:13.715Z,20.6
2018-11-13T04:12:08.648Z,20.08
2018-11-13T04:18:03.715Z,21.32
2018-11-13T04:23:58.718Z,21.94
2018-11-13T04:29:53.716Z,23.84
2018-11-13T04:35:48.675Z,24.42
2018-11-13T04:41:43.709Z,26.25
2018-11-13T04:47:38.682Z,21.39
2018-11-13T04:53:33.685Z,20.86
2018-11-13T04:59:28.731Z,23.95
2018-11-13T05:05:23.697Z,22.66
2018-11-13T05:11:18.711Z,21.7
2018-11-13T05:17:13.699Z,21.42
2018-11-13T05:23:08.801Z,21.34
2018-11-13T05:29:03.745Z,21.16
2018-11-13T05:34:58.703Z,21.41
2018-11-13T05:40:53.750Z,20.74
2018-11-13T05:46:48.732Z,22.19
2018-11-13T05:52:43.706Z,21.75
2018-11-13T05:58:38.721Z,22.38
2018-11-13T06:04:33.730Z,20.61
2018-11-13T06:10:28.744Z,20.25
2018-11-13T06:16:23.746Z,21.67
2018-11-13T06:22:18.742Z,19.67
2018-11-13T06:28:13.736Z,19.36
2018-11-13T06:34:08.762Z,22.05
2018-11-13T06:40:03.740Z,22.04
2018-11-13T06:45:58.763Z,22.03
2018-11-13T06:51:53.778Z,19.87
2018-11-13T06:57:48.770Z,20.69
2018-11-13T07:03:43.767Z,20.77
2018-11-13T07:09:38.774Z,24.41
2018-11-13T07:15:33.757Z,22.63
2018-11-13T07:21:28.816Z,23.12
2018-11-13T07:27:23.852Z,25.49
2018-11-13T07:33:18.795Z,25.26
2018-11-13T07:39:13.789Z,21.8
2018-11-13T07:45:08.816Z,23.16
2018-11-13T07:51:03.846Z,22.21
2018-11-13T07:56:58.886Z,24.55
2018-11-13T08:02:53.841Z,39.29
2018-11-13T08:08:48.800Z,63.7
2018-11-13T08:14:43.845Z,54.91
2018-11-13T08:20:38.793Z,23.62
2018-11-13T08:26:33.869Z,28
2018-11-13T08:32:28.804Z,22.71
2018-11-13T08:38:23.877Z,45.86
2018-11-13T08:44:18.990Z,30.83
2018-11-13T08:50:13.851Z,24.06
2018-11-13T08:56:08.841Z,30.1
2018-11-13T09:02:03.861Z,27.51
2018-11-13T09:07:58.866Z,26.08
2018-11-13T09:13:53.856Z,28.45
2018-11-13T09:19:48.849Z,28.34
2018-11-13T09:25:43.862Z,27.01
2018-11-13T09:31:38.955Z,23.47
2018-11-13T09:37:33.989Z,23.25
2018-11-13T09:43:28.884Z,25.08
2018-11-13T09:49:23.914Z,22.85
2018-11-13T09:55:18.862Z,24.39
2018-11-13T10:01:14.201Z,24.62
2018-11-13T10:07:08.877Z,25.63
2018-11-13T10:13:03.877Z,28.31
2018-11-13T10:18:58.893Z,28.57
2018-11-13T10:24:53.930Z,30.07
2018-11-13T10:30:48.901Z,29.92
2018-11-13T10:36:43.884Z,29.92
2018-11-13T10:42:38.925Z,31.54
2018-11-13T10:48:33.903Z,35.84
2018-11-13T10:54:28.933Z,36.39
2018-11-13T11:00:23.932Z,40.69
2018-11-13T11:06:18.906Z,42.55
2018-11-13T11:12:13.979Z,48.21
2018-11-13T11:18:08.957Z,43.47
2018-11-13T11:24:04.055Z,43.01
2018-11-13T11:29:58.946Z,43.93
2018-11-13T11:35:53.984Z,43.89
2018-11-13T11:41:49.006Z,39.91
2018-11-13T11:47:43.956Z,57.3
2018-11-13T11:53:39.007Z,40.65
2018-11-13T11:59:33.978Z,37.57
2018-11-13T12:05:28.966Z,37.97
2018-11-13T12:11:23.987Z,40.43
2018-11-13T12:17:18.951Z,39.05
2018-11-13T12:23:13.939Z,33.07
2018-11-13T12:29:08.966Z,35.29
2018-11-13T12:35:03.964Z,37.46
2018-11-13T12:40:59.137Z,38.83
2018-11-13T12:46:55.742Z,39.35
2018-11-13T12:52:48.988Z,38.31
2018-11-13T12:58:44.015Z,38.29
2018-11-13T13:04:39.022Z,38.23
2018-11-13T13:10:34.035Z,36.22
2018-11-13T13:16:29.012Z,37.95
2018-11-13T13:22:24.077Z,35.91
2018-11-13T13:28:19.048Z,37.21
2018-11-13T13:34:14.034Z,37.82
2018-11-13T13:40:09.019Z,40.42
2018-11-13T13:46:04.035Z,35.6
2018-11-13T13:51:59.024Z,31.73
2018-11-13T13:57:54.049Z,31.15
2018-11-13T14:03:49.028Z,29.52
2018-11-13T14:09:44.123Z,29.56
2018-11-13T14:15:39.041Z,27.27
2018-11-13T14:21:34.022Z,28.45
2018-11-13T14:27:29.038Z,32.66
2018-11-13T14:33:24.040Z,29.56
2018-11-13T14:39:19.044Z,32.63
2018-11-13T14:45:14.036Z,30.13
2018-11-13T14:51:09.058Z,27.73
2018-11-13T14:57:04.054Z,29.3
2018-11-13T15:02:59.062Z,30.18
2018-11-13T15:08:54.105Z,29.68
2018-11-13T15:14:49.073Z,27.45
2018-11-13T15:20:44.117Z,28
2018-11-13T15:26:39.145Z,33.87
2018-11-13T15:32:34.080Z,30.25
2018-11-13T15:38:29.102Z,32.19
2018-11-13T15:44:24.171Z,29.9
2018-11-13T15:50:19.102Z,30.99
2018-11-13T15:56:14.093Z,31.57
2018-11-13T16:02:09.110Z,32.12
2018-11-13T16:08:04.125Z,32.03
2018-11-13T16:13:59.159Z,32.08
2018-11-13T16:19:54.116Z,31.69
2018-11-13T16:25:49.163Z,32.5
2018-11-13T16:31:44.134Z,32.57
2018-11-13T16:37:39.127Z,31.88
2018-11-13T16:43:34.163Z,27.36
2018-11-13T16:49:29.142Z,26.69
2018-11-13T16:55:24.153Z,27.69
2018-11-13T17:01:19.280Z,23.66
2018-11-13T17:07:14.218Z,33.06
2018-11-13T17:13:09.157Z,24.85
2018-11-13T17:19:04.187Z,24.1
2018-11-13T17:24:59.189Z,26.7
2018-11-13T17:30:54.173Z,23.97
2018-11-13T17:36:49.154Z,27.36
2018-11-13T17:42:44.222Z,30.62
2018-11-13T17:48:39.209Z,28.88
2018-11-13T17:54:34.176Z,31.1
2018-11-13T18:00:29.182Z,42.74
2018-11-13T18:06:24.265Z,29.87
2018-11-13T18:12:19.192Z,37.97
2018-11-13T18:18:14.181Z,35.71
2018-11-13T18:24:09.190Z,45.22
2018-11-13T18:30:04.221Z,68.99
2018-11-13T18:35:59.228Z,64.34
2018-11-13T18:41:54.188Z,59.73
2018-11-13T18:47:49.209Z,59.59
2018-11-13T18:53:44.201Z,41.87
2018-11-13T18:59:39.220Z,39.6
2018-11-13T19:05:34.236Z,38.56
2018-11-13T19:11:29.306Z,37.79
2018-11-13T19:17:24.345Z,39.6
2018-11-13T19:23:19.250Z,39.74
2018-11-13T19:29:14.222Z,45.98
2018-11-13T19:35:09.290Z,53.68
2018-11-13T19:41:04.259Z,52.98
2018-11-13T19:46:59.235Z,47.02
2018-11-13T19:52:54.278Z,41.28
2018-11-13T19:58:49.364Z,35.07
2018-11-13T20:04:44.438Z,35.49
2018-11-13T20:10:39.249Z,31.35
2018-11-13T20:16:34.270Z,52.35
2018-11-13T20:22:29.632Z,45.51
2018-11-13T20:28:24.287Z,47.69
2018-11-13T20:34:19.295Z,40.75
2018-11-13T20:40:14.341Z,52.53
2018-11-13T20:46:09.307Z,52.74
2018-11-13T20:52:04.326Z,58.66
2018-11-13T20:57:59.315Z,60.16
2018-11-13T21:03:54.297Z,61.35
2018-11-13T21:09:49.311Z,53.52
2018-11-13T21:15:44.302Z,49.08
2018-11-13T21:21:39.307Z,45.87
2018-11-13T21:27:34.339Z,49.63
2018-11-13T21:33:29.306Z,43.77
2018-11-13T21:39:24.315Z,40.57
2018-11-13T21:45:19.322Z,42.4
2018-11-13T21:51:14.358Z,38.01
2018-11-13T21:57:09.340Z,38.15
2018-11-13T22:03:04.325Z,39.17
2018-11-13T22:08:59.385Z,40.18
2018-11-13T22:14:54.371Z,36.34
2018-11-13T22:20:49.330Z,40.26
2018-11-13T22:26:44.355Z,45.16
2018-11-13T22:32:39.329Z,38.28
2018-11-13T22:38:34.350Z,43.1
2018-11-13T22:44:29.343Z,45.54
2018-11-13T22:50:24.357Z,43
2018-11-13T22:56:19.357Z,44.4
2018-11-13T23:02:14.419Z,38.6
2018-11-13T23:08:09.391Z,36.42
2018-11-13T23:14:04.362Z,36.93
2018-11-13T23:19:59.403Z,32.34
2018-11-13T23:25:54.411Z,33.26
2018-11-13T23:31:49.387Z,26.73
2018-11-13T23:37:44.388Z,25.52
2018-11-13T23:43:39.396Z,26.86
2018-11-13T23:49:34.431Z,24.43
2018-11-13T23:55:29.502Z,30.49
